Time;durP1;ratioP1;P1;durP2;ratioP2;P2;SDS_P1;SDS_P2;PMS_P1;PMS_P2;Temp;Humidity;BMP_temperature;BMP_pressure;BME280_temperature;BME280_humidity;BME280_pressure;Samples;Min_cycle;Max_cycle;Signal;HPM_P1;HPM_P2
2022/05/11 00:00:30;;;;;;;;;;;;;;;18.60;60.73;101044.16;1029859;28;678;-64
2022/05/11 00:01:21;;;;;;;;;;;;;;;18.59;61.04;101046.00;1029415;28;635;-65
2022/05/11 00:02:11;;;;;;;;;;;;;;;18.58;61.03;101038.88;1029498;28;687;-64
2022/05/11 00:03:01;;;;;;;;;;;;;;;18.58;60.99;101040.72;1029334;28;627;-64
2022/05/11 00:03:52;;;;;;;;;;;;;;;18.57;61.52;101042.56;1029611;28;730;-65
2022/05/11 00:04:43;;;;;;;;;;;;;;;18.57;61.26;101047.97;1029638;28;667;-64
2022/05/11 00:05:33;;;;;;;;;;;;;;;18.57;61.40;101042.56;1029406;28;628;-64
2022/05/11 00:06:23;;;;;;;;;;;;;;;18.57;61.34;101031.78;1029684;28;615;-64
2022/05/11 00:07:14;;;;;;;;;;;;;;;18.58;60.40;101038.03;1029358;28;1646;-65
2022/05/11 00:08:04;;;;;;;;;;;;;;;18.56;61.55;101040.88;1029336;28;659;-64
2022/05/11 00:08:55;;;;;;;;;;;;;;;18.57;61.49;101037.16;1029998;28;651;-64
2022/05/11 00:09:45;;;;;;;;;;;;;;;18.58;61.33;101032.63;1029563;28;642;-64
2022/05/11 00:10:36;;;;;;;;;;;;;;;18.56;60.82;101038.16;1029610;28;666;-64
2022/05/11 00:11:27;;;;;;;;;;;;;;;18.56;61.56;101030.06;1029248;28;635;-64
2022/05/11 00:12:17;;;;;;;;;;;;;;;18.56;60.81;101023.81;1029711;28;661;-65
2022/05/11 00:13:08;;;;;;;;;;;;;;;18.56;60.59;101023.81;1030003;28;693;-64
2022/05/11 00:13:58;;;;;;;;;;;;;;;18.55;60.63;101027.50;1029498;28;627;-64
2022/05/11 00:14:48;;;;;;;;;;;;;;;18.55;61.20;101020.25;1029253;28;859;-63
2022/05/11 00:15:39;;;;;;;;;;;;;;;18.56;61.18;101021.13;1029648;28;686;-64
2022/05/11 00:16:29;;;;;;;;;;;;;;;18.56;60.30;101021.13;1029160;28;781;-64
2022/05/11 00:17:20;;;;;;;;;;;;;;;18.55;60.68;101022.13;1029673;28;1703;-64
2022/05/11 00:18:10;;;;;;;;;;;;;;;18.55;60.25;101022.97;1029252;28;654;-63
2022/05/11 00:19:00;;;;;;;;;;;;;;;18.55;60.64;101014.88;1029775;28;640;-64
2022/05/11 00:19:51;;;;;;;;;;;;;;;18.55;60.65;101008.63;1029722;28;713;-63
2022/05/11 00:20:41;;;;;;;;;;;;;;;18.54;60.98;101012.31;1029873;28;670;-63
2022/05/11 00:21:32;;;;;;;;;;;;;;;18.54;60.98;101009.63;1025495;28;617;-64
2022/05/11 00:22:22;;;;;;;;;;;;;;;18.52;61.23;101001.66;1025274;29;665;-63
2022/05/11 00:23:12;;;;;;;;;;;;;;;18.53;61.15;101007.91;1028679;28;615;-63
2022/05/11 00:24:03;;;;;;;;;;;;;;;18.53;61.26;101011.47;1029214;28;651;-64
2022/05/11 00:24:53;;;;;;;;;;;;;;;18.53;60.90;101013.31;1029966;28;725;-64
2022/05/11 00:25:48;;;;;;;;;;;;;;;18.53;60.58;101013.31;1029233;28;886;-64
2022/05/11 00:26:38;;;;;;;;;;;;;;;18.52;60.49;101000.81;1029736;28;736;-64
2022/05/11 00:27:29;;;;;;;;;;;;;;;18.52;60.04;101006.22;1029920;28;710;-64
2022/05/11 00:28:19;;;;;;;;;;;;;;;18.52;60.82;101011.59;1029179;28;665;-65
2022/05/11 00:29:10;;;;;;;;;;;;;;;18.51;60.94;101001.81;1029615;28;1678;-64
2022/05/11 00:30:01;;;;;;;;;;;;;;;18.51;60.30;101007.19;1029327;28;677;-64
2022/05/11 00:30:51;;;;;;;;;;;;;;;18.51;60.49;101009.91;1029620;28;733;-64
2022/05/11 00:31:42;;;;;;;;;;;;;;;18.51;60.42;101007.19;1029791;28;769;-64
2022/05/11 00:32:32;;;;;;;;;;;;;;;18.51;60.67;101012.59;1029243;28;635;-64
2022/05/11 00:33:22;;;;;;;;;;;;;;;18.49;60.36;101001.94;1029169;28;1902;-64
2022/05/11 00:34:13;;;;;;;;;;;;;;;18.50;59.99;101008.19;1029170;28;603;-64
2022/05/11 00:35:03;;;;;;;;;;;;;;;18.51;60.87;101007.19;1029128;28;879;-64
2022/05/11 00:35:54;;;;;;;;;;;;;;;18.49;60.70;101009.19;1029207;28;650;-64
2022/05/11 00:36:45;;;;;;;;;;;;;;;18.48;60.24;101002.94;1029180;28;713;-64
2022/05/11 00:37:35;;;;;;;;;;;;;;;18.48;61.11;100999.41;1029405;28;1671;-64
2022/05/11 00:38:26;;;;;;;;;;;;;;;18.48;60.78;101004.78;1029263;28;627;-63
2022/05/11 00:39:16;;;;;;;;;;;;;;;18.47;60.97;100998.53;1029209;28;643;-64
2022/05/11 00:40:06;;;;;;;;;;;;;;;18.48;60.65;101002.09;1029239;28;710;-64
2022/05/11 00:40:57;;;;;;;;;;;;;;;18.47;60.37;101003.94;1029002;28;1261;-64
2022/05/11 00:41:47;;;;;;;;;;;;;;;18.47;60.79;101003.94;1029198;28;630;-64
2022/05/11 00:42:38;;;;;;;;;;;;;;;18.47;61.04;100998.53;1029521;28;715;-63
2022/05/11 00:43:28;;;;;;;;;;;;;;;18.47;60.78;101000.38;1029328;28;655;-64
2022/05/11 00:44:19;;;;;;;;;;;;;;;18.48;59.95;100999.41;1029772;28;631;-64
2022/05/11 00:45:09;;;;;;;;;;;;;;;18.47;60.21;100992.28;1029463;28;627;-64
2022/05/11 00:45:59;;;;;;;;;;;;;;;18.46;60.47;100993.28;1029121;28;643;-65
2022/05/11 00:46:50;;;;;;;;;;;;;;;18.47;60.58;100998.53;1029129;28;748;-65
2022/05/11 00:47:40;;;;;;;;;;;;;;;18.46;60.49;100998.69;1028991;28;1679;-64
2022/05/11 00:49:40;;;;;;;;;;;;;;;18.47;60.85;100992.28;1029173;28;707;-64
2022/05/11 00:50:30;;;;;;;;;;;;;;;18.46;60.78;100994.13;1029329;28;1250;-65
2022/05/11 00:51:21;;;;;;;;;;;;;;;18.47;59.89;100997.69;1030393;28;690;-64
2022/05/11 00:52:11;;;;;;;;;;;;;;;18.46;60.36;100998.69;1028617;28;701;-64
2022/05/11 00:53:09;;;;;;;;;;;;;;;18.46;59.70;100996.84;1030158;28;662;-64
2022/05/11 00:54:00;;;;;;;;;;;;;;;18.44;59.98;100989.91;1029762;28;603;-64
2022/05/11 00:54:50;;;;;;;;;;;;;;;18.45;60.64;100991.63;1029245;28;685;-64
2022/05/11 00:55:40;;;;;;;;;;;;;;;18.45;60.06;100988.91;1029658;28;667;-65
2022/05/11 00:56:31;;;;;;;;;;;;;;;18.44;59.76;100984.50;1030453;28;666;-64
2022/05/11 00:57:21;;;;;;;;;;;;;;;18.45;60.57;100986.22;1025662;28;647;-64
2022/05/11 00:58:12;;;;;;;;;;;;;;;18.44;60.32;100984.50;1026071;28;657;-64
2022/05/11 00:59:02;;;;;;;;;;;;;;;18.44;60.58;100984.50;1024818;28;634;-66
2022/05/11 00:59:52;;;;;;;;;;;;;;;18.44;60.42;100984.50;1028976;28;1730;-64
2022/05/11 01:00:43;;;;;;;;;;;;;;;18.43;59.97;100983.66;1029113;28;699;-64
2022/05/11 01:01:33;;;;;;;;;;;;;;;18.44;60.42;100987.22;1029128;28;686;-64
2022/05/11 01:02:24;;;;;;;;;;;;;;;18.42;60.48;100984.66;1029102;28;635;-65
2022/05/11 01:03:14;;;;;;;;;;;;;;;18.43;60.64;100980.13;1029018;28;851;-64
2022/05/11 01:04:04;;;;;;;;;;;;;;;18.42;60.39;100979.25;1029829;28;651;-64
2022/05/11 01:04:55;;;;;;;;;;;;;;;18.43;60.29;100982.81;1030188;28;694;-65
2022/05/11 01:05:45;;;;;;;;;;;;;;;18.42;59.79;100978.41;1033814;28;674;-64
2022/05/11 01:06:36;;;;;;;;;;;;;;;18.42;59.95;100981.97;1033513;28;690;-64
2022/05/11 01:07:26;;;;;;;;;;;;;;;18.42;59.73;100981.13;1029201;28;674;-64
2022/05/11 01:08:16;;;;;;;;;;;;;;;18.42;60.29;100981.13;1029336;28;620;-64
2022/05/11 01:09:07;;;;;;;;;;;;;;;18.42;60.30;100981.13;1029188;28;651;-64
2022/05/11 01:09:57;;;;;;;;;;;;;;;18.42;59.80;100979.25;1029241;28;718;-65
2022/05/11 01:10:48;;;;;;;;;;;;;;;18.42;59.86;100984.66;1029181;28;640;-64
2022/05/11 01:11:38;;;;;;;;;;;;;;;18.42;59.61;100981.13;1029303;28;730;-64
2022/05/11 01:12:29;;;;;;;;;;;;;;;18.39;60.06;100980.41;1029051;28;647;-64
2022/05/11 01:13:19;;;;;;;;;;;;;;;18.41;60.41;100982.09;1029479;28;1957;-64
2022/05/11 01:14:10;;;;;;;;;;;;;;;18.39;60.35;100975.00;1029128;28;639;-64
2022/05/11 01:15:04;;;;;;;;;;;;;;;18.39;60.59;100975.00;1029128;28;682;-65
2022/05/11 01:15:54;;;;;;;;;;;;;;;18.39;60.38;100984.94;1029600;28;666;-65
2022/05/11 01:16:46;;;;;;;;;;;;;;;18.38;59.54;100978.69;1029059;28;608;-64
2022/05/11 01:17:36;;;;;;;;;;;;;;;18.39;59.55;100980.41;1029249;28;1667;-65
2022/05/11 01:18:26;;;;;;;;;;;;;;;18.39;60.42;100980.41;1029613;28;656;-65
2022/05/11 01:19:17;;;;;;;;;;;;;;;18.37;60.23;100979.69;1029038;28;655;-65
2022/05/11 01:20:07;;;;;;;;;;;;;;;18.37;60.25;100966.22;1029024;28;654;-65
2022/05/11 01:20:58;;;;;;;;;;;;;;;18.38;60.49;100972.44;1029153;28;596;-65
2022/05/11 01:21:48;;;;;;;;;;;;;;;18.38;59.76;100965.22;1029046;28;631;-65
2022/05/11 01:22:39;;;;;;;;;;;;;;;18.37;59.78;100968.91;1029349;28;709;-65
2022/05/11 01:23:29;;;;;;;;;;;;;;;18.37;60.52;100966.22;1028964;28;622;-64
2022/05/11 01:24:19;;;;;;;;;;;;;;;18.36;60.17;100964.50;1031292;28;695;-64
2022/05/11 01:25:10;;;;;;;;;;;;;;;18.36;60.19;100961.81;1032830;28;619;-65
2022/05/11 01:26:00;;;;;;;;;;;;;;;18.36;60.45;100960.94;1028135;28;714;-64
2022/05/11 01:26:51;;;;;;;;;;;;;;;18.36;59.48;100964.50;1029141;28;690;-64
2022/05/11 01:27:41;;;;;;;;;;;;;;;18.36;59.91;100963.66;1029147;28;682;-65
2022/05/11 01:28:32;;;;;;;;;;;;;;;18.35;59.62;100957.41;1027791;28;752;-65
2022/05/11 01:29:22;;;;;;;;;;;;;;;18.35;59.85;100960.09;1028465;28;615;-65
2022/05/11 01:30:13;;;;;;;;;;;;;;;18.34;60.47;100961.09;1027758;28;667;-65
2022/05/11 01:31:03;;;;;;;;;;;;;;;18.35;59.91;100962.81;1028568;28;694;-65
2022/05/11 01:31:54;;;;;;;;;;;;;;;18.34;59.75;100955.69;1027186;28;604;-65
2022/05/11 01:32:44;;;;;;;;;;;;;;;18.35;59.61;100962.81;1027559;28;659;-64
2022/05/11 01:33:35;;;;;;;;;;;;;;;18.34;59.48;100958.41;1026863;28;1883;-65
2022/05/11 01:34:25;;;;;;;;;;;;;;;18.34;59.63;100955.69;1029038;28;620;-64
2022/05/11 01:35:15;;;;;;;;;;;;;;;18.34;60.08;100955.69;1027658;28;667;-65
2022/05/11 01:36:06;;;;;;;;;;;;;;;18.35;59.89;100952.00;1027322;28;624;-65
2022/05/11 01:36:56;;;;;;;;;;;;;;;18.34;59.56;100953.00;1028079;28;1683;-65
2022/05/11 01:37:47;;;;;;;;;;;;;;;18.34;59.55;100953.00;1029069;28;651;-65
2022/05/11 01:38:37;;;;;;;;;;;;;;;18.34;60.13;100950.31;1029608;28;671;-65
2022/05/11 01:39:28;;;;;;;;;;;;;;;18.34;59.72;100944.91;1029198;28;655;-64
2022/05/11 01:40:18;;;;;;;;;;;;;;;18.33;60.48;100948.59;1029011;28;663;-65
2022/05/11 01:41:09;;;;;;;;;;;;;;;18.32;59.31;100946.91;1030016;28;1282;-65
2022/05/11 01:41:59;;;;;;;;;;;;;;;18.32;60.12;100946.91;1029461;28;650;-65
2022/05/11 01:42:49;;;;;;;;;;;;;;;18.32;59.61;100946.91;1029057;28;638;-65
2022/05/11 01:43:40;;;;;;;;;;;;;;;18.33;59.73;100950.44;1030350;28;698;-65
2022/05/11 01:44:30;;;;;;;;;;;;;;;18.32;59.40;100940.66;1029144;28;623;-65
2022/05/11 01:45:21;;;;;;;;;;;;;;;18.32;59.82;100940.66;1028689;28;1687;-64
2022/05/11 01:46:11;;;;;;;;;;;;;;;18.32;59.46;100946.03;1028554;28;606;-64
2022/05/11 01:47:02;;;;;;;;;;;;;;;18.32;59.78;100935.25;1029494;28;694;-64
2022/05/11 01:47:52;;;;;;;;;;;;;;;18.31;59.64;100939.81;1029377;28;702;-66
2022/05/11 01:48:43;;;;;;;;;;;;;;;18.32;59.32;100938.81;1028999;28;659;-65
2022/05/11 01:49:34;;;;;;;;;;;;;;;18.32;59.64;100940.66;1028421;28;1516;-65
2022/05/11 01:50:24;;;;;;;;;;;;;;;18.31;59.80;100939.81;1027542;28;698;-64
2022/05/11 01:51:15;;;;;;;;;;;;;;;18.31;60.06;100934.41;1024247;29;682;-64
2022/05/11 01:52:05;;;;;;;;;;;;;;;18.30;59.91;100940.78;1024514;29;627;-65
2022/05/11 01:52:56;;;;;;;;;;;;;;;18.31;59.25;100941.66;1025881;28;740;-64
2022/05/11 01:53:46;;;;;;;;;;;;;;;18.31;59.18;100947.03;1024967;29;1972;-64
2022/05/11 01:54:36;;;;;;;;;;;;;;;18.32;59.94;100948.75;1024778;29;714;-65
2022/05/11 01:55:27;;;;;;;;;;;;;;;18.32;59.32;100946.91;1025544;28;1726;-64
2022/05/11 01:56:19;;;;;;;;;;;;;;;18.32;60.02;100948.75;1028898;28;617;-65
2022/05/11 01:57:09;;;;;;;;;;;;;;;18.32;59.83;100946.03;1029483;28;682;-64
2022/05/11 01:58:00;;;;;;;;;;;;;;;18.32;59.61;100946.03;1028951;28;718;-64
2022/05/11 01:58:50;;;;;;;;;;;;;;;18.31;59.62;100942.50;1029026;28;619;-64
2022/05/11 01:59:40;;;;;;;;;;;;;;;18.31;59.19;100939.81;1028862;28;615;-64
2022/05/11 02:00:31;;;;;;;;;;;;;;;18.31;59.79;100939.81;1028939;28;632;-65
2022/05/11 02:01:21;;;;;;;;;;;;;;;18.30;59.89;100940.78;1028985;28;709;-64
2022/05/11 02:02:12;;;;;;;;;;;;;;;18.30;59.74;100943.50;1029143;28;709;-64
2022/05/11 02:03:02;;;;;;;;;;;;;;;18.30;59.62;100937.25;1029090;28;773;-64
2022/05/11 02:03:53;;;;;;;;;;;;;;;18.30;59.74;100946.19;1029446;28;643;-65
2022/05/11 02:08:10;;;;;;;;;;;;;;;18.28;60.05;100937.38;1029202;28;630;-65
2022/05/11 02:09:01;;;;;;;;;;;;;;;18.29;59.92;100939.09;1029806;28;640;-65
2022/05/11 02:09:51;;;;;;;;;;;;;;;18.29;59.28;100930.16;1029355;28;756;-66
2022/05/11 02:10:41;;;;;;;;;;;;;;;18.29;60.07;100930.16;1029046;28;698;-66
2022/05/11 02:11:32;;;;;;;;;;;;;;;18.28;59.99;100931.16;1029053;28;619;-65
2022/05/11 02:12:22;;;;;;;;;;;;;;;18.28;59.21;100923.91;1029309;28;588;-66
2022/05/11 02:13:14;;;;;;;;;;;;;;;18.27;59.86;100927.59;1031074;28;710;-67
2022/05/11 02:14:04;;;;;;;;;;;;;;;18.28;59.62;100936.53;1031389;28;670;-66
2022/05/11 02:14:57;;;;;;;;;;;;;;;18.27;59.66;100933.00;1030455;28;679;-66
2022/05/11 02:15:49;;;;;;;;;;;;;;;18.27;59.27;100927.59;1029895;28;650;-66
2022/05/11 02:16:40;;;;;;;;;;;;;;;18.26;59.83;100933.16;1032461;28;626;-66
2022/05/11 02:17:30;;;;;;;;;;;;;;;18.26;59.79;100928.63;1033992;28;729;-66
2022/05/11 02:18:21;;;;;;;;;;;;;;;18.27;59.71;100937.56;1033934;28;709;-66
2022/05/11 02:19:11;;;;;;;;;;;;;;;18.27;59.86;100941.09;1030781;28;614;-67
2022/05/11 02:20:02;;;;;;;;;;;;;;;18.27;59.09;100932.16;1031098;28;702;-65
2022/05/11 02:20:52;;;;;;;;;;;;;;;18.27;59.36;100938.38;1029116;28;650;-65
2022/05/11 02:21:43;;;;;;;;;;;;;;;18.25;59.57;100935.00;1029035;28;639;-65
2022/05/11 02:22:33;;;;;;;;;;;;;;;18.25;59.79;100932.31;1028858;28;627;-65
2022/05/11 02:23:23;;;;;;;;;;;;;;;18.26;59.43;100941.25;1029016;28;603;-65
2022/05/11 02:24:15;;;;;;;;;;;;;;;18.27;59.82;100935.69;1028848;28;647;-65
2022/05/11 02:25:06;;;;;;;;;;;;;;;18.26;59.41;100933.16;1029276;28;1718;-65
2022/05/11 02:25:57;;;;;;;;;;;;;;;18.26;59.56;100936.72;1029290;28;651;-66
2022/05/11 02:26:47;;;;;;;;;;;;;;;18.25;59.19;100940.41;1028592;28;639;-65
2022/05/11 02:27:38;;;;;;;;;;;;;;;18.25;59.95;100939.56;1029022;28;654;-66
2022/05/11 02:28:28;;;;;;;;;;;;;;;18.25;59.12;100935.00;1028847;28;701;-65
2022/05/11 02:29:18;;;;;;;;;;;;;;;18.24;59.84;100933.31;1029118;28;650;-65
2022/05/11 02:30:09;;;;;;;;;;;;;;;18.24;59.99;100933.31;1028911;28;631;-65
2022/05/11 02:31:00;;;;;;;;;;;;;;;18.25;59.01;100934.16;1028849;28;698;-66
2022/05/11 02:31:50;;;;;;;;;;;;;;;18.24;59.34;100930.63;1029518;28;678;-66
2022/05/11 02:32:41;;;;;;;;;;;;;;;18.24;59.51;100930.63;1028784;28;630;-66
2022/05/11 02:33:31;;;;;;;;;;;;;;;18.23;59.92;100936.16;1028786;28;1894;-66
2022/05/11 02:35:31;;;;;;;;;;;;;;;18.23;58.99;100925.38;1024875;28;628;-66
2022/05/11 02:36:23;;;;;;;;;;;;;;;18.22;58.91;100923.66;1024929;29;651;-66
2022/05/11 02:37:13;;;;;;;;;;;;;;;18.23;59.36;100930.75;1024956;29;631;-67
2022/05/11 02:38:03;;;;;;;;;;;;;;;18.23;59.36;100928.91;1024450;29;632;-66
2022/05/11 02:38:55;;;;;;;;;;;;;;;18.23;59.38;100922.66;1024797;29;687;-66
2022/05/11 02:39:46;;;;;;;;;;;;;;;18.22;59.82;100924.50;1024927;29;642;-66
2022/05/11 02:40:37;;;;;;;;;;;;;;;18.23;59.20;100925.38;1024796;29;599;-66
2022/05/11 02:41:27;;;;;;;;;;;;;;;18.22;59.06;100919.13;1024419;29;726;-66
2022/05/11 02:42:18;;;;;;;;;;;;;;;18.23;59.44;100925.38;1024876;29;674;-67
2022/05/11 02:43:10;;;;;;;;;;;;;;;18.22;59.41;100913.72;1024788;29;646;-66
2022/05/11 02:44:01;;;;;;;;;;;;;;;18.21;59.91;100911.16;1028907;28;666;-66
2022/05/11 02:44:52;;;;;;;;;;;;;;;18.21;58.87;100912.03;1027224;28;626;-68
2022/05/11 02:45:42;;;;;;;;;;;;;;;18.22;59.87;100910.19;1027544;28;624;-67
2022/05/11 02:46:33;;;;;;;;;;;;;;;18.21;59.33;100909.31;1028988;28;1699;-67
2022/05/11 02:47:23;;;;;;;;;;;;;;;18.20;59.46;100901.38;1029620;28;694;-68
2022/05/11 02:48:14;;;;;;;;;;;;;;;18.21;59.32;100905.78;1029665;28;635;-67
2022/05/11 02:49:05;;;;;;;;;;;;;;;18.20;59.46;100904.91;1029673;28;616;-68
2022/05/11 02:49:55;;;;;;;;;;;;;;;18.21;59.50;100903.94;1030153;28;637;-67
2022/05/11 02:50:46;;;;;;;;;;;;;;;18.20;59.07;100899.53;1029797;28;1190;-64
2022/05/11 02:51:37;;;;;;;;;;;;;;;18.19;59.09;100900.53;1029580;28;683;-64
2022/05/11 02:52:27;;;;;;;;;;;;;;;18.20;59.39;100899.53;1030067;28;615;-64
2022/05/11 02:53:17;;;;;;;;;;;;;;;18.20;59.42;100896.84;1030559;28;1678;-65
2022/05/11 02:54:08;;;;;;;;;;;;;;;18.20;58.97;100904.91;1029654;28;655;-64
2022/05/11 02:54:58;;;;;;;;;;;;;;;18.20;58.93;100902.22;1030105;28;647;-64
2022/05/11 02:55:49;;;;;;;;;;;;;;;18.20;59.85;100904.91;1029585;28;635;-64
2022/05/11 02:56:40;;;;;;;;;;;;;;;18.20;59.55;100906.78;1029664;28;595;-64
2022/05/11 02:57:31;;;;;;;;;;;;;;;18.19;59.31;100897.81;1029701;28;678;-64
2022/05/11 02:58:21;;;;;;;;;;;;;;;18.20;59.50;100904.06;1029662;28;595;-64
2022/05/11 02:59:12;;;;;;;;;;;;;;;18.21;59.29;100903.06;1029680;28;627;-64
2022/05/11 03:00:02;;;;;;;;;;;;;;;18.20;59.74;100898.69;1029531;28;723;-64
2022/05/11 03:00:53;;;;;;;;;;;;;;;18.21;59.01;100900.38;1029625;28;714;-65
2022/05/11 03:01:43;;;;;;;;;;;;;;;18.21;59.52;100903.06;1029856;28;654;-64
2022/05/11 03:02:33;;;;;;;;;;;;;;;18.19;59.44;100908.63;1029480;28;674;-64
2022/05/11 03:03:24;;;;;;;;;;;;;;;18.19;59.27;100902.38;1029356;28;1657;-64
2022/05/11 03:04:14;;;;;;;;;;;;;;;18.19;59.69;100900.53;1030075;28;622;-65
2022/05/11 03:05:05;;;;;;;;;;;;;;;18.18;59.89;100896.13;1029658;28;650;-63
2022/05/11 03:05:55;;;;;;;;;;;;;;;18.19;58.80;100895.13;1029493;28;632;-64
2022/05/11 03:06:47;;;;;;;;;;;;;;;18.18;59.57;100901.53;1029578;28;721;-62
2022/05/11 03:07:38;;;;;;;;;;;;;;;18.18;58.90;100895.28;1029965;28;662;-65
2022/05/11 03:08:29;;;;;;;;;;;;;;;18.17;59.73;100899.81;1029555;28;686;-64
2022/05/11 03:09:19;;;;;;;;;;;;;;;18.17;58.79;100899.81;1030158;28;611;-65
2022/05/11 03:10:10;;;;;;;;;;;;;;;18.17;59.55;100897.13;1029670;28;697;-65
2022/05/11 03:11:00;;;;;;;;;;;;;;;18.18;59.57;100901.53;1029491;28;697;-65
2022/05/11 03:11:50;;;;;;;;;;;;;;;18.18;59.77;100903.38;1029580;28;855;-64
2022/05/11 03:12:41;;;;;;;;;;;;;;;18.16;59.30;100895.41;1028795;28;722;-64
2022/05/11 03:13:31;;;;;;;;;;;;;;;18.18;59.84;100890.72;1029019;28;1894;-65
2022/05/11 03:14:22;;;;;;;;;;;;;;;18.18;59.31;100895.28;1029487;28;690;-64
2022/05/11 03:15:13;;;;;;;;;;;;;;;18.16;58.88;100890.03;1030142;28;659;-64
2022/05/11 03:16:03;;;;;;;;;;;;;;;18.17;59.13;100899.81;1029630;28;588;-64
2022/05/11 03:16:53;;;;;;;;;;;;;;;18.16;59.65;100892.72;1029831;28;725;-63
2022/05/11 03:17:44;;;;;;;;;;;;;;;18.16;59.73;100883.78;1029853;28;816;-65
2022/05/11 03:18:34;;;;;;;;;;;;;;;18.16;59.29;100881.94;1029395;28;615;-65
2022/05/11 03:19:25;;;;;;;;;;;;;;;18.15;59.36;100890.16;1029647;28;687;-64
2022/05/11 03:20:15;;;;;;;;;;;;;;;18.15;59.53;100885.63;1029502;28;558;-65
2022/05/11 03:21:06;;;;;;;;;;;;;;;18.15;58.75;100890.16;1029594;28;711;-65
2022/05/11 03:21:56;;;;;;;;;;;;;;;18.15;59.25;100884.78;1029884;28;647;-64
2022/05/11 03:22:46;;;;;;;;;;;;;;;18.15;59.61;100888.31;1029324;28;1748;-66
2022/05/11 03:23:37;;;;;;;;;;;;;;;18.14;59.85;100892.00;1029687;28;666;-66
2022/05/11 03:24:27;;;;;;;;;;;;;;;18.14;59.12;100883.91;1029266;28;663;-66
2022/05/11 03:25:18;;;;;;;;;;;;;;;18.15;59.65;100884.78;1029645;28;740;-66
2022/05/11 03:26:08;;;;;;;;;;;;;;;18.14;58.77;100877.69;1029563;28;686;-66
2022/05/11 03:26:59;;;;;;;;;;;;;;;18.13;59.21;100876.81;1030032;28;651;-66
2022/05/11 03:27:50;;;;;;;;;;;;;;;18.13;59.74;100876.81;1029104;28;658;-66
2022/05/11 03:28:40;;;;;;;;;;;;;;;18.14;58.84;100883.91;1030415;28;623;-66
2022/05/11 03:29:30;;;;;;;;;;;;;;;18.13;59.35;100882.22;1034707;28;642;-66
2022/05/11 03:30:21;;;;;;;;;;;;;;;18.13;59.32;100884.91;1031331;28;669;-66
2022/05/11 03:31:11;;;;;;;;;;;;;;;18.13;58.71;100882.22;1029769;28;988;-66
2022/05/11 03:34:39;;;;;;;;;;;;;;;18.12;59.54;100888.59;1030051;28;615;-65
2022/05/11 03:35:29;;;;;;;;;;;;;;;18.13;59.21;100886.75;1030106;28;646;-65
2022/05/11 03:36:20;;;;;;;;;;;;;;;18.12;59.48;100885.91;1029602;28;658;-65
2022/05/11 03:37:11;;;;;;;;;;;;;;;18.12;59.65;100885.91;1029800;28;647;-64
2022/05/11 03:38:01;;;;;;;;;;;;;;;18.12;58.67;100885.06;1029858;28;627;-63
2022/05/11 03:38:51;;;;;;;;;;;;;;;18.12;59.05;100880.53;1029518;28;606;-64
2022/05/11 03:39:42;;;;;;;;;;;;;;;18.11;59.21;100878.81;1030176;28;741;-65
2022/05/11 03:40:32;;;;;;;;;;;;;;;18.10;59.16;100874.41;1030043;28;619;-65
2022/05/11 03:41:23;;;;;;;;;;;;;;;18.10;59.58;100877.13;1029431;28;658;-64
2022/05/11 03:42:13;;;;;;;;;;;;;;;18.10;59.08;100876.25;1029808;28;607;-64
2022/05/11 03:43:04;;;;;;;;;;;;;;;18.11;59.43;100873.44;1029450;28;698;-63
2022/05/11 03:43:54;;;;;;;;;;;;;;;18.11;59.48;100876.13;1029396;28;707;-64
2022/05/11 03:44:45;;;;;;;;;;;;;;;18.11;59.40;100878.81;1030359;28;752;-64
2022/05/11 03:45:35;;;;;;;;;;;;;;;18.11;59.38;100867.19;1029401;28;687;-64
2022/05/11 03:46:26;;;;;;;;;;;;;;;18.10;59.24;100870.88;1029580;28;674;-65
2022/05/11 03:47:16;;;;;;;;;;;;;;;18.10;58.86;100874.41;1030002;28;607;-65
2022/05/11 03:48:06;;;;;;;;;;;;;;;18.10;58.57;100869.03;1029484;28;643;-65
2022/05/11 03:48:57;;;;;;;;;;;;;;;18.10;59.17;100869.03;1030084;28;631;-65
2022/05/11 03:49:47;;;;;;;;;;;;;;;18.09;59.27;100872.75;1029315;28;667;-65
2022/05/11 03:50:38;;;;;;;;;;;;;;;18.11;58.54;100872.56;1029455;28;1195;-65
2022/05/11 03:51:28;;;;;;;;;;;;;;;18.10;59.08;100871.72;1030752;28;607;-65
2022/05/11 03:52:19;;;;;;;;;;;;;;;18.09;59.17;100870.06;1030469;28;630;-64
2022/05/11 03:53:09;;;;;;;;;;;;;;;18.09;59.69;100870.06;1025555;28;675;-64
2022/05/11 03:54:00;;;;;;;;;;;;;;;18.09;59.01;100870.06;1025902;29;746;-65
2022/05/11 03:54:50;;;;;;;;;;;;;;;18.09;59.49;100859.25;1025409;29;619;-64
2022/05/11 03:55:41;;;;;;;;;;;;;;;18.10;59.37;100868.19;1025518;29;615;-64
2022/05/11 03:56:31;;;;;;;;;;;;;;;18.09;58.95;100869.19;1025011;28;616;-64
2022/05/11 03:57:21;;;;;;;;;;;;;;;18.10;59.44;100869.03;1026074;28;706;-64
2022/05/11 03:58:14;;;;;;;;;;;;;;;18.08;59.15;100862.97;1025962;29;616;-64
2022/05/11 03:59:04;;;;;;;;;;;;;;;18.10;58.91;100865.47;1025454;29;714;-64
2022/05/11 03:59:55;;;;;;;;;;;;;;;18.08;59.62;100862.09;1025425;29;638;-64
2022/05/11 04:00:45;;;;;;;;;;;;;;;18.08;59.05;100865.66;1025320;29;662;-64
2022/05/11 04:01:36;;;;;;;;;;;;;;;18.08;59.38;100868.34;1025397;29;631;-64
2022/05/11 04:02:26;;;;;;;;;;;;;;;18.08;59.55;100865.66;1027024;28;1683;-64
2022/05/11 04:03:16;;;;;;;;;;;;;;;18.08;58.73;100862.97;1029484;28;665;-64
2022/05/11 04:04:07;;;;;;;;;;;;;;;18.08;58.74;100862.97;1029293;28;639;-64
2022/05/11 04:04:57;;;;;;;;;;;;;;;18.07;58.45;100866.66;1029432;28;594;-64
2022/05/11 04:05:48;;;;;;;;;;;;;;;18.08;58.94;100868.34;1029262;28;702;-64
2022/05/11 04:06:38;;;;;;;;;;;;;;;18.08;58.94;100867.50;1029326;28;627;-64
2022/05/11 04:07:29;;;;;;;;;;;;;;;18.06;58.94;100867.66;1029485;28;650;-63
2022/05/11 04:08:19;;;;;;;;;;;;;;;18.06;58.76;100859.56;1029392;28;710;-64
2022/05/11 04:09:09;;;;;;;;;;;;;;;18.06;58.84;100859.56;1029822;28;678;-64
2022/05/11 04:10:00;;;;;;;;;;;;;;;18.07;58.68;100857.72;1029301;28;678;-64
2022/05/11 04:10:50;;;;;;;;;;;;;;;18.06;58.85;100848.75;1029035;28;1615;-64
2022/05/11 04:11:41;;;;;;;;;;;;;;;18.05;59.06;100863.25;1029523;28;895;-64
2022/05/11 04:12:31;;;;;;;;;;;;;;;18.06;59.59;100859.56;1029307;28;705;-64
2022/05/11 04:13:21;;;;;;;;;;;;;;;18.04;58.53;100850.75;1029738;28;598;-63
2022/05/11 04:14:12;;;;;;;;;;;;;;;18.05;58.85;100855.16;1029457;28;643;-64
2022/05/11 04:15:02;;;;;;;;;;;;;;;18.05;58.84;100855.16;1027790;28;690;-64
2022/05/11 04:15:53;;;;;;;;;;;;;;;18.06;58.64;100846.06;1028783;28;632;-64
2022/05/11 04:16:43;;;;;;;;;;;;;;;18.06;58.85;100850.63;1029304;28;701;-64
2022/05/11 04:17:34;;;;;;;;;;;;;;;18.04;58.72;100850.75;1029451;28;686;-64
2022/05/11 04:18:24;;;;;;;;;;;;;;;18.06;58.96;100843.38;1030647;28;638;-64
2022/05/11 04:19:15;;;;;;;;;;;;;;;18.06;58.30;100843.38;1029744;28;651;-64
2022/05/11 04:20:05;;;;;;;;;;;;;;;18.05;58.40;100852.47;1030015;28;591;-64
2022/05/11 04:20:56;;;;;;;;;;;;;;;18.05;59.25;100847.06;1029164;28;1737;-64
2022/05/11 04:21:46;;;;;;;;;;;;;;;18.06;59.36;100840.69;1029334;28;655;-64
2022/05/11 04:22:37;;;;;;;;;;;;;;;18.04;59.30;100840.81;1029249;28;1798;-64
2022/05/11 04:23:27;;;;;;;;;;;;;;;18.04;58.56;100840.81;1029527;28;694;-64
2022/05/11 04:24:17;;;;;;;;;;;;;;;18.04;59.04;100845.38;1028976;28;705;-65
2022/05/11 04:25:09;;;;;;;;;;;;;;;18.03;58.73;100843.66;1029154;28;733;-65
2022/05/11 04:25:59;;;;;;;;;;;;;;;18.04;58.66;100846.22;1029298;28;670;-65
2022/05/11 04:26:50;;;;;;;;;;;;;;;18.04;58.52;100845.38;1029432;28;670;-65
2022/05/11 04:27:40;;;;;;;;;;;;;;;18.04;58.46;100848.06;1029527;28;694;-65
2022/05/11 04:28:32;;;;;;;;;;;;;;;18.04;59.04;100846.22;1029018;28;686;-65
2022/05/11 04:29:22;;;;;;;;;;;;;;;18.06;58.77;100837.13;1029760;28;623;-65
2022/05/11 04:30:13;;;;;;;;;;;;;;;18.04;58.79;100840.81;1029135;28;662;-64
2022/05/11 04:31:03;;;;;;;;;;;;;;;18.04;58.36;100839.97;1029249;28;611;-63
2022/05/11 04:31:54;;;;;;;;;;;;;;;18.04;59.31;100838.13;1029348;28;729;-64
2022/05/11 04:32:44;;;;;;;;;;;;;;;18.03;58.63;100838.28;1029298;28;635;-63
2022/05/11 04:33:34;;;;;;;;;;;;;;;18.03;58.86;100843.66;1029184;28;1977;-64
2022/05/11 04:34:25;;;;;;;;;;;;;;;18.03;58.86;100849.91;1029202;28;619;-64